Time;durP1;ratioP1;P1;durP2;ratioP2;P2;SDS_P1;SDS_P2;PMS_P1;PMS_P2;Temp;Humidity;BMP_temperature;BMP_pressure;BME280_temperature;BME280_humidity;BME280_pressure;Samples;Min_cycle;Max_cycle;Signal;HPM_P1;HPM_P2
2024/02/26 05:01:45;;;;;;;4.45;3.25;;;;;;;-1.55;100.00;99835.34;4931175;29;20412;-92
2024/02/26 06:42:00;;;;;;;4.77;3.27;;;;;;;-1.24;100.00;99930.84;4879611;29;20056;-89
2024/02/26 06:44:32;;;;;;;5.13;3.60;;;;;;;-1.05;100.00;99938.88;4835072;29;1289496;-88
2024/02/26 06:46:59;;;;;;;4.97;3.20;;;;;;;-0.91;100.00;99929.59;4852908;29;20498;-89
2024/02/26 06:49:27;;;;;;;5.40;3.20;;;;;;;-0.80;100.00;99929.72;4811525;29;20138;-89
2024/02/26 07:50:11;;;;;;;5.53;3.27;;;;;;;0.68;100.00;99962.50;4916186;29;20052;-91
2024/02/26 07:54:37;;;;;;;4.37;3.30;;;;;;;0.78;100.00;99967.78;4857954;29;20061;-90
2024/02/26 07:59:06;;;;;;;3.97;3.37;;;;;;;0.92;100.00;99973.06;4857691;29;20132;-91
2024/02/26 08:03:22;;;;;;;5.87;3.83;;;;;;;1.16;100.00;99969.78;4784822;30;20159;-92
2024/02/26 08:05:58;;;;;;;5.60;3.57;;;;;;;1.47;100.00;99973.44;4784537;29;20151;-91
2024/02/26 08:08:25;;;;;;;6.23;3.77;;;;;;;1.54;100.00;99975.22;4899885;29;20051;-92
2024/02/26 08:10:52;;;;;;;6.20;3.93;;;;;;;1.84;100.00;99974.44;4884779;29;20516;-92
2024/02/26 08:13:19;;;;;;;7.00;3.63;;;;;;;2.13;100.00;99969.34;4900978;29;20084;-92
2024/02/26 08:15:46;;;;;;;5.90;3.67;;;;;;;2.30;100.00;99971.13;4903418;29;20055;-92
2024/02/26 08:18:14;;;;;;;5.80;3.60;;;;;;;2.45;100.00;99966.81;4878300;29;20079;-93
2024/02/26 08:21:08;;;;;;;5.30;3.80;;;;;;;2.70;100.00;99975.53;4909848;29;20040;-95
2024/02/26 11:55:36;;;;;;;11.45;7.85;;;;;;;10.94;62.66;99977.16;4935311;29;20051;-92
2024/02/26 12:48:14;;;;;;;13.75;9.98;;;;;;;10.64;69.30;99986.06;4896392;29;20052;-92
2024/02/26 12:54:40;;;;;;;12.65;8.55;;;;;;;10.82;71.75;99992.53;4839113;29;20101;-91
2024/02/26 12:57:08;;;;;;;12.43;8.45;;;;;;;10.92;72.81;99994.81;4827958;29;20172;-91
2024/02/26 12:59:36;;;;;;;13.77;9.73;;;;;;;10.94;70.49;100008.03;4824717;29;20037;-91
2024/02/26 13:02:04;;;;;;;14.73;10.27;;;;;;;10.93;69.68;100008.91;4810434;29;20050;-91
2024/02/26 13:04:34;;;;;;;19.58;12.75;;;;;;;10.83;71.58;100010.13;4839703;29;20054;-91
2024/02/26 13:07:04;;;;;;;13.35;9.02;;;;;;;10.78;72.49;100010.28;4822913;29;20525;-91
2024/02/26 13:09:36;;;;;;;13.95;9.85;;;;;;;10.81;72.04;100010.16;4828095;29;20068;-90
2024/02/26 13:12:07;;;;;;;13.63;9.07;;;;;;;10.61;72.18;100013.44;4858788;29;20459;-91
2024/02/26 13:14:35;;;;;;;11.73;8.88;;;;;;;10.67;72.40;100012.38;4839258;29;20417;-92
2024/02/26 13:17:03;;;;;;;13.82;9.25;;;;;;;10.52;71.40;100020.78;4839038;29;20573;-90
2024/02/26 13:19:30;;;;;;;13.25;9.88;;;;;;;10.39;70.73;100005.31;4854298;29;20566;-90
2024/02/26 13:22:06;;;;;;;12.02;8.48;;;;;;;10.47;73.22;100018.28;4849661;29;20128;-91
2024/02/26 13:24:34;;;;;;;10.98;8.23;;;;;;;10.43;73.83;100014.88;4836476;29;20081;-90
2024/02/26 13:27:05;;;;;;;12.60;8.88;;;;;;;10.55;72.53;100011.00;4822431;29;20743;-90
2024/02/26 13:29:32;;;;;;;18.13;11.30;;;;;;;10.57;73.11;100003.88;4831063;29;20167;-90
2024/02/26 13:31:59;;;;;;;15.10;9.75;;;;;;;10.55;70.91;99997.78;4818333;29;20050;-90
2024/02/26 13:34:27;;;;;;;14.32;9.68;;;;;;;10.40;70.64;100000.88;4821767;29;20483;-90
2024/02/26 13:36:55;;;;;;;13.23;9.38;;;;;;;10.43;70.56;99993.75;4836791;29;20052;-90
2024/02/26 13:39:26;;;;;;;12.30;8.80;;;;;;;10.32;72.66;100001.13;4837001;29;20132;-89
2024/02/26 13:41:54;;;;;;;14.75;8.90;;;;;;;10.35;72.10;99997.53;4821531;29;20050;-90
2024/02/26 13:44:22;;;;;;;11.68;8.65;;;;;;;10.37;70.92;99982.50;4851839;29;20212;-91
2024/02/26 13:46:52;;;;;;;11.77;9.05;;;;;;;10.29;71.71;99989.78;4836687;29;20094;-91
2024/02/26 13:49:19;;;;;;;9.15;7.45;;;;;;;10.20;74.69;99993.53;4836594;29;20053;-91
2024/02/26 13:51:47;;;;;;;11.55;8.27;;;;;;;10.30;73.89;99988.88;4834826;29;20149;-91
2024/02/26 13:54:14;;;;;;;13.07;8.98;;;;;;;10.00;71.28;99991.47;4836084;29;20541;-90
2024/02/26 13:56:42;;;;;;;13.85;8.82;;;;;;;10.00;73.36;99990.59;4812331;29;20141;-90
2024/02/26 13:59:13;;;;;;;11.82;8.52;;;;;;;10.01;73.44;99998.50;4818927;29;20072;-91
2024/02/26 14:01:40;;;;;;;12.45;8.63;;;;;;;10.05;71.92;100002.75;4816370;29;20077;-90
2024/02/26 14:04:09;;;;;;;11.23;8.05;;;;;;;9.88;71.47;100010.28;4852383;29;20041;-90
2024/02/26 14:06:36;;;;;;;13.27;8.75;;;;;;;9.93;72.00;100004.91;4823400;29;20456;-90
2024/02/26 14:09:04;;;;;;;10.52;8.25;;;;;;;9.73;72.09;100008.06;4822383;29;20062;-91
2024/02/26 14:11:31;;;;;;;11.02;8.15;;;;;;;9.74;75.18;100009.81;4808324;29;20061;-92
2024/02/26 14:13:59;;;;;;;11.73;7.28;;;;;;;9.82;72.13;100013.09;4822184;29;20053;-91
2024/02/26 14:16:26;;;;;;;10.30;7.00;;;;;;;9.84;73.55;100016.56;4837579;29;20052;-92
2024/02/26 14:18:57;;;;;;;11.40;6.70;;;;;;;9.78;74.27;100024.66;4852323;29;20227;-91
2024/02/26 14:21:24;;;;;;;10.70;7.32;;;;;;;9.73;72.80;100014.22;4838924;29;20075;-92
2024/02/26 14:23:52;;;;;;;11.30;7.65;;;;;;;9.71;73.20;100023.94;4843390;29;20081;-90
2024/02/26 14:26:19;;;;;;;10.00;6.88;;;;;;;9.58;75.66;100020.78;4822764;29;20490;-90
2024/02/26 14:28:46;;;;;;;10.90;7.40;;;;;;;9.66;77.48;100025.81;4822252;29;20050;-92
2024/02/26 14:31:16;;;;;;;8.88;6.00;;;;;;;9.58;78.93;100033.97;4821961;29;20069;-91
2024/02/26 14:33:44;;;;;;;8.15;6.00;;;;;;;9.56;78.56;100040.19;4837559;29;20046;-91
2024/02/26 14:36:12;;;;;;;10.23;7.18;;;;;;;9.72;74.67;100040.63;4853914;29;20629;-90
2024/02/26 14:38:39;;;;;;;9.02;6.32;;;;;;;9.66;76.32;100049.56;4839352;29;20049;-91
2024/02/26 14:41:06;;;;;;;8.18;6.57;;;;;;;9.62;75.77;100052.34;4838875;29;20050;-91
2024/02/26 14:43:35;;;;;;;8.80;5.90;;;;;;;9.57;76.29;100063.84;4840590;29;20073;-91
2024/02/26 14:46:02;;;;;;;8.15;6.03;;;;;;;9.51;77.87;100058.78;4861223;29;20053;-91
2024/02/26 14:48:30;;;;;;;8.40;6.50;;;;;;;9.53;78.37;100067.50;4824294;29;20149;-92
2024/02/26 14:50:58;;;;;;;8.75;5.72;;;;;;;9.47;78.96;100069.41;4840248;29;20046;-92
2024/02/26 14:53:26;;;;;;;9.38;6.38;;;;;;;9.67;78.42;100067.16;4832608;29;20046;-92
2024/02/26 14:55:53;;;;;;;7.88;5.97;;;;;;;9.73;77.06;100066.09;4842909;29;20153;-90
2024/02/26 14:58:20;;;;;;;7.68;6.32;;;;;;;9.75;77.62;100070.44;4843147;29;20053;-91
2024/02/26 15:00:48;;;;;;;11.30;6.80;;;;;;;9.72;77.22;100072.28;4843179;29;20045;-90
2024/02/26 15:03:17;;;;;;;9.05;6.47;;;;;;;9.52;79.08;100081.59;4842897;29;20057;-92
2024/02/26 15:05:44;;;;;;;12.90;8.35;;;;;;;9.65;79.06;100078.63;4858367;29;20049;-91
2024/02/26 15:08:14;;;;;;;12.10;8.38;;;;;;;9.54;76.90;100081.53;4857857;29;20046;-90
2024/02/26 15:10:48;;;;;;;9.30;6.57;;;;;;;9.48;80.05;100084.34;4842463;29;20046;-91
2024/02/26 15:13:15;;;;;;;12.52;8.18;;;;;;;9.56;79.23;100090.28;4857375;29;20049;-92
2024/02/26 15:15:43;;;;;;;11.32;7.75;;;;;;;9.54;77.31;100087.69;4842006;29;20110;-92
2024/02/26 15:18:15;;;;;;;10.85;7.68;;;;;;;9.46;78.16;100087.00;4842768;29;20049;-90
2024/02/26 15:20:43;;;;;;;10.43;7.00;;;;;;;9.29;79.92;100084.78;4842448;29;20049;-91
2024/02/26 15:23:10;;;;;;;11.77;7.00;;;;;;;9.34;81.24;100083.84;4855476;29;20057;-91
2024/02/26 15:25:38;;;;;;;9.40;7.15;;;;;;;9.44;82.41;100090.59;4849231;29;20076;-92
2024/02/26 15:28:06;;;;;;;10.15;7.55;;;;;;;9.37;79.68;100099.56;4844663;29;20053;-90
2024/02/26 15:30:33;;;;;;;12.02;7.53;;;;;;;9.32;78.77;100103.16;4856967;29;20098;-91
2024/02/26 15:33:00;;;;;;;11.35;7.93;;;;;;;9.28;80.25;100098.88;4811193;29;20413;-92
2024/02/26 15:35:28;;;;;;;11.45;6.95;;;;;;;9.27;80.94;100104.19;4860730;29;20066;-90
2024/02/26 15:37:55;;;;;;;11.68;7.88;;;;;;;9.28;79.51;100112.06;4856461;29;20061;-91
2024/02/26 15:40:22;;;;;;;12.70;8.00;;;;;;;9.21;79.92;100109.59;4855447;29;20077;-90
2024/02/26 15:42:49;;;;;;;12.05;7.40;;;;;;;9.14;79.63;100113.28;4840819;29;20141;-91
2024/02/26 15:45:17;;;;;;;10.13;7.07;;;;;;;9.09;81.48;100115.16;4825972;29;20534;-90
2024/02/26 15:47:44;;;;;;;10.70;7.50;;;;;;;9.08;81.93;100114.31;4840592;29;20071;-92
2024/02/26 15:50:11;;;;;;;12.25;7.90;;;;;;;9.02;80.75;100125.84;4825092;29;20054;-91
2024/02/26 15:52:39;;;;;;;12.77;7.80;;;;;;;9.02;78.92;100119.72;4840850;29;20057;-91
2024/02/26 15:55:06;;;;;;;11.20;7.43;;;;;;;9.07;80.81;100133.63;4831807;29;20053;-91
2024/02/26 15:57:33;;;;;;;12.30;6.95;;;;;;;8.99;79.47;100131.16;4853883;29;20137;-90
2024/02/26 16:00:03;;;;;;;11.52;7.57;;;;;;;8.94;79.17;100130.41;4824421;29;20133;-91
2024/02/26 16:02:30;;;;;;;10.20;6.93;;;;;;;8.80;79.91;100140.38;4835992;29;20549;-90
2024/02/26 16:04:57;;;;;;;10.57;8.00;;;;;;;8.80;80.21;100140.38;4854565;29;20050;-91
2024/02/26 16:07:32;;;;;;;10.70;6.90;;;;;;;8.79;81.24;100137.78;4839005;29;20075;-91
2024/02/26 16:09:59;;;;;;;13.00;7.53;;;;;;;8.66;82.24;100150.31;4825010;29;20057;-91
2024/02/26 16:12:42;;;;;;;15.40;8.53;;;;;;;8.43;84.05;100153.44;4825574;29;20113;-91
2024/02/26 16:15:10;;;;;;;11.07;7.43;;;;;;;8.56;83.63;100159.31;4843089;29;20068;-91
2024/02/26 16:17:46;;;;;;;12.13;7.57;;;;;;;8.40;84.46;100172.78;4823244;29;20084;-90
2024/02/26 16:20:15;;;;;;;11.27;6.70;;;;;;;8.32;85.39;100174.66;4854294;29;20106;-90
2024/02/26 16:22:43;;;;;;;13.03;7.97;;;;;;;8.35;85.66;100179.91;4834479;29;20580;-90
